Aérodrome :
LOGIN :

S'inscrire | Disclaimer

   EN    FR    IT 

 










Légende :    VFR   VFR Marginal   IFR   IFR Intensif   IFR Très Intensif
Visi : 
Plafond : 
>= 8 km
>= 3000ft
5 à 8 km
1000 à 3000 ft
1500m à 5 km
500 à 1000 ft
800 à 1500m
200 à 500 ft
< 800m
< 200 ft
Symboles :   Orages  Brouillard  Fortes neiges  Fortes précipitations  Vent > 20 kt
SIGMETs :   Divers  Orages  Givrage  Turbulence  Onde Orograph.  Cendres Volcan.







- Altitude de l'aérodrome : 794 ft


LKCV - Čáslav Air Base

DERNIER METAR :
  • 172100Z 28005KT 8000 NSC 02/02 Q1024 NOSIG RMK BLU+ BLU

METARs EXPIRÉS :
  • 172000Z 30004KT 8000 NSC 04/03 Q1024 NOSIG RMK BLU BLU
  • 171900Z 31003KT 8000 FEW008 OVC040 05/04 Q1024 NOSIG RMK BLU BLU

TAF AMD TAF LKCV
Valide du 17 à 18h jusqu'au 18 à 18h UTC


171700Z 1718/1818 30006KT 8000 BR SCT025
TEMPO 1718/1720 4000 BR BKN006
BECMG 1800/1802 VRB02KT 4000 BR NSC
TEMPO 1802/1809 3000 BR BKN008
PROB40
TEMPO 1803/1808 0500 FZFG VV002
BECMG 1809/1811 24008KT 6000 BKN015
Pas de NOTAMs connus pour ce terrain.



MET'MAP, la Météo Aéronautique d'un coup d'oeil ! - Copyright ORBIFLY Décembre 2007 - Disclaimer

ORBIFLY MET'MAP TEAM :

Programmation & Développement : Alexandra Zaïnal
Conception & Développement : Baudouin d'Aumeries
Co-Programmation & Développement : Marc-Olivier Méhu
Soutien technique & logistique : Manuel Goepfert

Contact : metmap@orbifly.com




SOURCES & CREDITS :

   NOAA